createdAt,value
2018-03-29T00:02:18.721Z,79.21
2018-03-29T00:04:46.281Z,79.31
2018-03-29T00:07:13.846Z,78.63
2018-03-29T00:09:41.442Z,78.51
2018-03-29T00:12:08.991Z,78.28
2018-03-29T00:14:36.538Z,79.57
2018-03-29T00:17:04.133Z,80.56
2018-03-29T00:19:31.718Z,80.78
2018-03-29T00:21:59.273Z,80.64
2018-03-29T00:24:26.854Z,80.87
2018-03-29T00:26:54.399Z,80.99
2018-03-29T00:29:21.957Z,81.01
2018-03-29T00:31:49.678Z,80.46
2018-03-29T00:34:17.220Z,80.36
2018-03-29T00:36:44.777Z,80.76
2018-03-29T00:39:12.354Z,80.89
2018-03-29T00:41:39.908Z,80.60
2018-03-29T00:44:07.468Z,80.73
2018-03-29T00:46:35.141Z,81.12
2018-03-29T00:49:02.691Z,81.58
2018-03-29T00:51:30.239Z,81.99
2018-03-29T00:53:57.922Z,81.92
2018-03-29T00:56:25.487Z,82.55
2018-03-29T00:58:53.044Z,82.65
2018-03-29T01:01:20.908Z,83.07
2018-03-29T01:03:48.445Z,83.20
2018-03-29T01:06:15.989Z,83.29
2018-03-29T01:08:43.711Z,83.83
2018-03-29T01:11:11.258Z,83.91
2018-03-29T01:13:38.833Z,83.89
2018-03-29T01:16:06.437Z,83.64
2018-03-29T01:18:34.009Z,83.59
2018-03-29T01:21:01.560Z,83.61
2018-03-29T01:23:29.125Z,83.77
2018-03-29T01:25:56.674Z,83.81
2018-03-29T01:28:24.223Z,83.81
2018-03-29T01:30:52.107Z,84.08
2018-03-29T01:33:19.657Z,83.87
2018-03-29T01:35:47.232Z,83.86
2018-03-29T01:38:14.800Z,84.02
2018-03-29T01:40:42.349Z,84.09
2018-03-29T01:43:09.917Z,84.16
2018-03-29T01:45:37.470Z,84.29
2018-03-29T01:48:05.043Z,84.05
2018-03-29T01:50:32.764Z,83.84
2018-03-29T01:53:00.308Z,83.80
2018-03-29T01:55:27.854Z,83.85
2018-03-29T01:57:55.605Z,84.06
2018-03-29T02:00:23.156Z,83.97
2018-03-29T02:02:50.713Z,84.02
2018-03-29T02:05:18.443Z,83.84
2018-03-29T02:07:46.035Z,83.50
2018-03-29T02:10:13.589Z,83.72
2018-03-29T02:12:41.170Z,83.46
2018-03-29T02:15:08.717Z,83.23
2018-03-29T02:17:36.266Z,83.00
2018-03-29T02:20:03.976Z,82.88
2018-03-29T02:22:31.536Z,82.66
2018-03-29T02:24:59.092Z,82.70
2018-03-29T02:27:26.673Z,82.58
2018-03-29T02:29:54.234Z,82.43
2018-03-29T02:32:21.796Z,82.54
2018-03-29T02:34:49.513Z,82.85
2018-03-29T02:37:17.079Z,82.68
2018-03-29T02:39:44.656Z,82.81
2018-03-29T02:42:12.252Z,82.80
2018-03-29T02:44:39.794Z,82.72
2018-03-29T02:47:08.093Z,82.65
2018-03-29T02:49:36.114Z,82.95
2018-03-29T02:52:03.701Z,82.94
2018-03-29T02:54:31.259Z,82.71
2018-03-29T02:56:58.986Z,82.82
2018-03-29T02:59:26.537Z,83.01
2018-03-29T03:01:54.086Z,82.98
2018-03-29T03:04:21.705Z,83.00
2018-03-29T03:06:49.258Z,83.13
2018-03-29T03:09:16.828Z,83.19
2018-03-29T03:11:44.410Z,83.49
2018-03-29T03:14:11.953Z,83.29
2018-03-29T03:16:39.495Z,82.86
2018-03-29T03:19:07.086Z,82.95
2018-03-29T03:21:34.650Z,83.37
2018-03-29T03:24:02.265Z,83.70
2018-03-29T03:26:29.838Z,83.85
2018-03-29T03:28:57.394Z,84.04
2018-03-29T03:31:24.951Z,84.10
2018-03-29T03:33:52.839Z,84.23
2018-03-29T03:36:20.392Z,84.55
2018-03-29T03:38:47.947Z,84.83
2018-03-29T03:41:15.675Z,85.06
2018-03-29T03:43:43.242Z,85.26
2018-03-29T03:46:10.797Z,85.55
2018-03-29T03:48:38.483Z,85.69
2018-03-29T03:51:06.027Z,85.61
2018-03-29T03:53:33.600Z,85.88
2018-03-29T03:56:01.226Z,85.95
2018-03-29T03:58:28.774Z,86.08
2018-03-29T04:00:56.314Z,86.48
2018-03-29T04:03:23.910Z,86.34
2018-03-29T04:05:51.489Z,86.55
2018-03-29T04:08:19.060Z,86.51
2018-03-29T04:10:46.653Z,86.71
2018-03-29T04:13:14.202Z,87.03
2018-03-29T04:15:41.745Z,86.88
2018-03-29T04:18:09.382Z,86.79
2018-03-29T04:20:36.938Z,86.84
2018-03-29T04:23:04.481Z,86.61
2018-03-29T04:25:32.084Z,86.66
2018-03-29T04:27:59.658Z,86.57
2018-03-29T04:30:27.204Z,86.34
2018-03-29T04:32:54.774Z,86.10
2018-03-29T04:35:22.342Z,85.57
2018-03-29T04:37:49.904Z,84.00
2018-03-29T04:40:17.590Z,82.73
2018-03-29T04:42:45.130Z,81.29
2018-03-29T04:45:12.677Z,73.71
2018-03-29T04:47:40.274Z,67.02
2018-03-29T04:50:07.822Z,60.70
2018-03-29T04:52:35.370Z,57.09
2018-03-29T04:55:02.949Z,55.31
2018-03-29T04:57:30.485Z,54.39
2018-03-29T04:59:58.039Z,50.83
2018-03-29T05:02:25.735Z,47.88
2018-03-29T05:04:53.277Z,45.87
2018-03-29T05:07:20.831Z,45.86
2018-03-29T05:09:48.635Z,45.62
2018-03-29T05:12:16.196Z,44.42
2018-03-29T05:14:43.797Z,43.12
2018-03-29T05:17:11.702Z,41.62
2018-03-29T05:19:39.260Z,41.65
2018-03-29T05:22:06.819Z,40.86
2018-03-29T05:24:34.585Z,41.01
2018-03-29T05:27:03.000Z,41.68
2018-03-29T05:29:30.547Z,41.11
2018-03-29T05:31:58.119Z,40.52
2018-03-29T05:34:25.677Z,38.51
2018-03-29T05:36:53.225Z,38.24
2018-03-29T05:39:20.903Z,36.80
2018-03-29T05:41:48.444Z,35.53
2018-03-29T05:44:15.984Z,35.21
2018-03-29T05:46:43.861Z,34.57
2018-03-29T05:49:11.414Z,34.10
2018-03-29T05:51:38.969Z,32.32
2018-03-29T05:54:06.698Z,31.77
2018-03-29T05:56:34.241Z,31.54
2018-03-29T05:59:01.794Z,30.95
2018-03-29T06:01:29.391Z,30.61
2018-03-29T06:03:56.938Z,29.88
2018-03-29T06:06:24.503Z,29.97
2018-03-29T06:08:52.227Z,28.00
2018-03-29T06:11:19.815Z,27.68
2018-03-29T06:13:52.849Z,26.78
2018-03-29T06:16:20.464Z,27.13
2018-03-29T06:18:48.046Z,25.80
2018-03-29T06:21:15.598Z,25.22
2018-03-29T06:23:43.185Z,25.37
2018-03-29T06:26:10.730Z,25.47
2018-03-29T06:28:38.286Z,26.22
2018-03-29T06:31:05.896Z,25.82
2018-03-29T06:33:33.442Z,25.29
2018-03-29T06:36:01.007Z,25.21
2018-03-29T06:38:28.635Z,24.86
2018-03-29T06:40:56.190Z,23.87
2018-03-29T06:43:23.738Z,23.84
2018-03-29T06:45:51.284Z,23.14
2018-03-29T06:48:18.856Z,23.31
2018-03-29T06:50:46.450Z,23.35
2018-03-29T06:53:14.003Z,23.87
2018-03-29T06:55:41.553Z,23.39
2018-03-29T06:58:09.252Z,22.45
2018-03-29T07:00:36.815Z,22.48
2018-03-29T07:03:04.353Z,21.77
2018-03-29T07:05:32.060Z,22.50
2018-03-29T07:07:59.618Z,21.73
2018-03-29T07:10:27.192Z,22.89
2018-03-29T07:12:54.769Z,22.37
2018-03-29T07:15:22.314Z,21.65
2018-03-29T07:17:49.868Z,21.81
2018-03-29T07:20:17.457Z,21.85
2018-03-29T07:22:44.998Z,22.36
2018-03-29T07:25:12.555Z,22.56
2018-03-29T07:27:40.429Z,23.31
2018-03-29T07:30:08.042Z,23.56
2018-03-29T07:32:35.590Z,25.42
2018-03-29T07:35:03.461Z,26.59
2018-03-29T07:37:31.010Z,25.95
2018-03-29T07:39:58.562Z,27.32
2018-03-29T07:42:26.184Z,28.01
2018-03-29T07:44:53.754Z,28.90
2018-03-29T07:47:21.339Z,30.91
2018-03-29T07:49:49.067Z,32.36
2018-03-29T07:52:16.616Z,33.64
2018-03-29T07:54:44.175Z,34.50
2018-03-29T07:57:12.057Z,34.18
2018-03-29T07:59:39.598Z,35.40
2018-03-29T08:02:07.146Z,35.59
2018-03-29T08:04:34.894Z,36.80
2018-03-29T08:07:02.454Z,37.13
2018-03-29T08:09:30.006Z,37.68
2018-03-29T08:11:57.611Z,37.71
2018-03-29T08:14:25.163Z,36.79
2018-03-29T08:16:52.722Z,37.17
2018-03-29T08:19:20.452Z,38.10
2018-03-29T08:21:48.026Z,37.34
2018-03-29T08:24:15.586Z,38.53
2018-03-29T08:26:43.181Z,37.70
2018-03-29T08:29:10.730Z,38.26
2018-03-29T08:31:38.303Z,38.25
2018-03-29T08:34:05.991Z,38.97
2018-03-29T08:36:33.539Z,38.54
2018-03-29T08:39:01.091Z,38.75
2018-03-29T08:41:28.960Z,38.59
2018-03-29T08:43:56.508Z,38.78
2018-03-29T08:46:24.059Z,40.45
2018-03-29T08:48:51.686Z,39.80
2018-03-29T08:51:19.229Z,39.46
2018-03-29T08:53:46.793Z,39.45
2018-03-29T08:56:14.668Z,40.34
2018-03-29T08:58:42.220Z,38.31
2018-03-29T09:01:09.757Z,39.24
2018-03-29T09:03:37.500Z,40.20
2018-03-29T09:06:05.063Z,41.40
2018-03-29T09:08:32.610Z,39.79
2018-03-29T09:11:00.315Z,39.25
2018-03-29T09:13:27.861Z,38.37
2018-03-29T09:15:55.409Z,39.23
2018-03-29T09:18:23.918Z,40.51
2018-03-29T09:20:51.476Z,39.62
2018-03-29T09:23:19.037Z,39.37
2018-03-29T09:25:46.648Z,38.02
2018-03-29T09:28:14.204Z,37.40
2018-03-29T09:30:41.754Z,38.18
2018-03-29T09:33:09.358Z,38.61
2018-03-29T09:35:36.907Z,38.54
2018-03-29T09:38:04.491Z,38.63
2018-03-29T09:40:32.183Z,39.28
2018-03-29T09:42:59.739Z,39.06
2018-03-29T09:45:27.285Z,38.69
2018-03-29T09:47:54.876Z,37.54
2018-03-29T09:50:22.429Z,38.28
2018-03-29T09:52:49.978Z,37.91
2018-03-29T09:55:17.577Z,37.59
2018-03-29T09:57:45.136Z,37.35
2018-03-29T10:00:12.920Z,38.35
2018-03-29T10:02:45.872Z,38.27
2018-03-29T10:05:13.444Z,37.84
2018-03-29T10:07:41.243Z,36.95
2018-03-29T10:10:08.988Z,36.46
2018-03-29T10:12:36.538Z,38.10
2018-03-29T10:15:04.154Z,37.30
2018-03-29T10:17:31.780Z,37.43
2018-03-29T10:19:59.343Z,38.93
2018-03-29T10:22:26.897Z,37.02
2018-03-29T10:24:54.637Z,36.68
2018-03-29T10:27:22.184Z,35.78
2018-03-29T10:29:49.740Z,38.13
2018-03-29T10:32:17.441Z,36.81
2018-03-29T10:34:45.018Z,36.32
2018-03-29T10:37:12.561Z,37.31
2018-03-29T10:39:40.173Z,37.46
2018-03-29T10:42:07.731Z,36.22
2018-03-29T10:44:35.284Z,36.67
2018-03-29T10:47:02.871Z,35.84
2018-03-29T10:49:30.427Z,36.58
2018-03-29T10:51:57.973Z,35.58
2018-03-29T10:54:25.554Z,35.95
2018-03-29T10:56:53.098Z,35.18
2018-03-29T10:59:20.652Z,37.02
2018-03-29T11:01:48.326Z,36.02
2018-03-29T11:04:15.874Z,37.11
2018-03-29T11:06:43.429Z,35.65
2018-03-29T11:09:11.042Z,36.03
2018-03-29T11:11:38.589Z,36.99
2018-03-29T11:14:06.165Z,35.93
2018-03-29T11:16:33.763Z,36.10
2018-03-29T11:19:01.323Z,36.92
2018-03-29T11:21:28.878Z,35.23
2018-03-29T11:23:56.587Z,35.17
2018-03-29T11:26:24.142Z,36.07
2018-03-29T11:28:51.696Z,36.59
2018-03-29T11:31:19.279Z,35.78
2018-03-29T11:33:46.833Z,36.29
2018-03-29T11:36:14.375Z,35.55
2018-03-29T11:38:41.954Z,35.61
2018-03-29T11:41:09.513Z,35.43
2018-03-29T11:43:37.066Z,35.65
2018-03-29T11:46:04.618Z,36.46
2018-03-29T11:48:32.177Z,36.07
2018-03-29T11:50:59.754Z,35.34
2018-03-29T11:53:27.311Z,34.83
2018-03-29T11:55:54.866Z,35.86
2018-03-29T11:58:22.489Z,35.09
2018-03-29T12:00:50.036Z,36.19
2018-03-29T12:03:17.595Z,35.36
2018-03-29T12:05:45.200Z,36.61
2018-03-29T12:08:12.764Z,35.65
2018-03-29T12:10:40.322Z,35.51
2018-03-29T12:13:08.051Z,35.56
2018-03-29T12:15:35.623Z,36.31
2018-03-29T12:18:03.173Z,37.36
2018-03-29T12:20:30.778Z,35.45
2018-03-29T12:22:58.386Z,35.08
2018-03-29T12:25:25.930Z,34.68
2018-03-29T12:27:53.672Z,35.67
2018-03-29T12:30:21.227Z,35.08
2018-03-29T12:32:48.775Z,36.38
2018-03-29T12:35:16.358Z,35.17
2018-03-29T12:37:43.904Z,34.79
2018-03-29T12:40:11.460Z,33.56
2018-03-29T12:42:39.331Z,34.34
2018-03-29T12:45:06.936Z,34.21
2018-03-29T12:47:34.449Z,34.03
2018-03-29T12:50:02.059Z,34.57
2018-03-29T12:52:29.620Z,34.52
2018-03-29T12:55:09.114Z,34.37
2018-03-29T12:57:48.414Z,34.54
2018-03-29T13:00:16.005Z,34.35
2018-03-29T13:02:43.565Z,33.71
2018-03-29T13:05:11.118Z,33.76
2018-03-29T13:07:38.849Z,34.17
2018-03-29T13:10:06.410Z,34.23
2018-03-29T13:12:33.966Z,34.13
2018-03-29T13:15:01.557Z,33.61
2018-03-29T13:17:29.110Z,32.85
2018-03-29T13:19:58.124Z,33.25
2018-03-29T13:22:25.751Z,33.96
2018-03-29T13:24:53.304Z,33.95
2018-03-29T13:27:20.855Z,34.19
2018-03-29T13:29:48.733Z,34.09
2018-03-29T13:32:16.288Z,32.96
2018-03-29T13:34:43.845Z,34.01
2018-03-29T13:37:11.582Z,33.97
2018-03-29T13:39:39.141Z,32.84
2018-03-29T13:42:06.693Z,33.43
2018-03-29T13:44:34.463Z,33.44
2018-03-29T13:47:02.026Z,33.60
2018-03-29T13:49:29.598Z,32.79
2018-03-29T13:51:57.205Z,32.55
2018-03-29T13:54:24.758Z,34.32
2018-03-29T13:56:52.310Z,32.93
2018-03-29T13:59:19.885Z,32.56
2018-03-29T14:01:47.429Z,32.88
2018-03-29T14:04:15.030Z,33.54
2018-03-29T14:06:42.623Z,32.17
2018-03-29T14:09:10.175Z,31.92
2018-03-29T14:11:37.731Z,32.25
2018-03-29T14:14:05.431Z,33.15
2018-03-29T14:16:32.982Z,33.07
2018-03-29T14:19:00.548Z,34.42
2018-03-29T14:21:28.273Z,32.80
2018-03-29T14:23:55.823Z,31.52
2018-03-29T14:26:23.381Z,32.16
2018-03-29T14:28:51.110Z,31.68
2018-03-29T14:31:18.663Z,32.27
2018-03-29T14:33:46.221Z,31.36
2018-03-29T14:36:13.915Z,31.81
2018-03-29T14:38:41.495Z,30.63
2018-03-29T14:41:09.069Z,31.27
2018-03-29T14:43:36.763Z,31.97
2018-03-29T14:46:04.344Z,32.73
2018-03-29T14:48:31.894Z,31.89
2018-03-29T14:50:59.576Z,31.46
2018-03-29T14:53:27.118Z,31.56
2018-03-29T14:55:54.681Z,31.55
2018-03-29T14:58:22.281Z,31.62
2018-03-29T15:00:49.841Z,31.78
2018-03-29T15:03:17.385Z,31.61
2018-03-29T15:05:45.078Z,32.05
2018-03-29T15:08:12.643Z,32.43
2018-03-29T15:10:40.212Z,33.13
2018-03-29T15:13:07.825Z,33.47
2018-03-29T15:15:35.376Z,33.60
2018-03-29T15:18:02.930Z,34.12
2018-03-29T15:20:30.663Z,34.04
2018-03-29T15:22:58.218Z,34.04
2018-03-29T15:25:25.791Z,34.90
2018-03-29T15:27:53.380Z,35.40
2018-03-29T15:30:20.923Z,34.80
2018-03-29T15:32:48.465Z,35.27
2018-03-29T15:35:16.052Z,35.95
2018-03-29T15:37:43.596Z,36.45
2018-03-29T15:40:11.142Z,36.27
2018-03-29T15:42:38.738Z,37.82
2018-03-29T15:45:06.290Z,38.76
2018-03-29T15:47:33.846Z,38.99
2018-03-29T15:50:01.585Z,39.02
2018-03-29T15:52:29.150Z,39.07
2018-03-29T15:54:56.698Z,39.61
2018-03-29T15:57:24.299Z,39.97
2018-03-29T15:59:51.859Z,41.14
2018-03-29T16:02:19.423Z,41.29
2018-03-29T16:04:47.019Z,41.36
2018-03-29T16:07:14.568Z,40.92
2018-03-29T16:09:42.139Z,40.40
2018-03-29T16:12:09.874Z,40.72
2018-03-29T16:14:37.427Z,41.03
2018-03-29T16:17:04.987Z,41.66
2018-03-29T16:19:32.721Z,42.05
2018-03-29T16:22:00.314Z,42.81
2018-03-29T16:24:27.941Z,43.05
2018-03-29T16:26:55.481Z,43.12
2018-03-29T16:29:23.035Z,44.05
2018-03-29T16:31:50.738Z,44.63
2018-03-29T16:34:18.309Z,45.24
2018-03-29T16:36:45.858Z,46.19
2018-03-29T16:39:13.452Z,46.82
2018-03-29T16:41:41.001Z,47.63
2018-03-29T16:44:08.552Z,47.68
2018-03-29T16:46:36.338Z,47.67
2018-03-29T16:49:03.943Z,47.45
2018-03-29T16:51:31.489Z,45.58
2018-03-29T16:53:59.182Z,45.16
2018-03-29T16:56:26.747Z,47.24
2018-03-29T16:58:54.318Z,48.65
2018-03-29T17:01:21.935Z,48.82
2018-03-29T17:03:49.501Z,48.65
2018-03-29T17:06:17.066Z,49.24
2018-03-29T17:08:44.943Z,48.32
2018-03-29T17:11:12.533Z,49.19
2018-03-29T17:13:40.734Z,49.65
2018-03-29T17:16:08.561Z,50.28
2018-03-29T17:18:36.208Z,51.76
2018-03-29T17:21:03.851Z,52.33
2018-03-29T17:23:31.525Z,52.78
2018-03-29T17:25:59.108Z,53.38
2018-03-29T17:28:26.724Z,54.25
2018-03-29T17:30:54.309Z,54.07
2018-03-29T17:33:21.876Z,54.57
2018-03-29T17:35:49.438Z,54.51
2018-03-29T17:38:17.084Z,55.49
2018-03-29T17:40:44.668Z,56.01
2018-03-29T17:43:12.220Z,56.43
2018-03-29T17:45:39.820Z,56.15
2018-03-29T17:48:07.418Z,56.37
2018-03-29T17:50:35.004Z,57.27
2018-03-29T17:53:02.594Z,57.41
2018-03-29T17:55:30.167Z,56.58
2018-03-29T17:57:57.733Z,56.55
2018-03-29T18:00:25.623Z,57.14
2018-03-29T18:02:53.178Z,56.36
2018-03-29T18:05:20.730Z,55.78
2018-03-29T18:07:48.438Z,53.23
2018-03-29T18:10:16.004Z,51.57
2018-03-29T18:12:43.603Z,47.39
2018-03-29T18:15:11.210Z,49.99
2018-03-29T18:17:38.769Z,50.98
2018-03-29T18:20:06.353Z,48.96
2018-03-29T18:22:33.951Z,50.58
2018-03-29T18:25:01.512Z,50.44
2018-03-29T18:27:29.058Z,50.28
2018-03-29T18:29:56.808Z,49.02
2018-03-29T18:32:24.364Z,51.08
2018-03-29T18:34:51.940Z,50.63
2018-03-29T18:37:19.550Z,50.95
2018-03-29T18:39:47.127Z,53.91
2018-03-29T18:42:14.693Z,53.79
2018-03-29T18:44:42.304Z,53.43
2018-03-29T18:47:09.863Z,53.30
2018-03-29T18:49:37.443Z,52.85
2018-03-29T18:52:05.340Z,53.18
2018-03-29T18:54:32.913Z,53.98
2018-03-29T18:57:00.490Z,53.38
2018-03-29T18:59:28.424Z,54.65
2018-03-29T19:01:56.005Z,55.47
2018-03-29T19:04:23.565Z,55.70
2018-03-29T19:06:51.417Z,57.32
2018-03-29T19:09:18.997Z,58.45
2018-03-29T19:11:46.551Z,58.44
2018-03-29T19:14:14.130Z,58.15
2018-03-29T19:16:41.710Z,58.38
2018-03-29T19:19:09.259Z,58.72
2018-03-29T19:21:37.410Z,58.44
2018-03-29T19:24:04.978Z,59.02
2018-03-29T19:26:32.539Z,59.35
2018-03-29T19:29:00.314Z,59.43
2018-03-29T19:31:27.867Z,59.23
2018-03-29T19:33:55.427Z,58.21
2018-03-29T19:36:23.201Z,58.63
2018-03-29T19:38:50.766Z,57.46
2018-03-29T19:41:18.347Z,56.83
2018-03-29T19:43:46.241Z,56.11
2018-03-29T19:46:13.814Z,56.55
2018-03-29T19:48:41.371Z,58.00
2018-03-29T19:51:08.969Z,60.86
2018-03-29T19:53:36.657Z,59.91
2018-03-29T19:56:04.266Z,60.02
2018-03-29T19:58:31.893Z,60.59
2018-03-29T20:00:59.467Z,61.25
2018-03-29T20:03:27.060Z,61.07
2018-03-29T20:05:54.673Z,61.88
2018-03-29T20:08:22.248Z,62.76
2018-03-29T20:10:49.822Z,64.53
2018-03-29T20:13:17.399Z,64.48
2018-03-29T20:15:44.985Z,64.93
2018-03-29T20:18:12.528Z,65.25
2018-03-29T20:20:40.266Z,65.38
2018-03-29T20:23:07.819Z,64.67
2018-03-29T20:25:35.375Z,63.24
2018-03-29T20:28:02.963Z,63.11
2018-03-29T20:30:30.531Z,63.32
2018-03-29T20:32:58.101Z,63.69
2018-03-29T20:35:25.659Z,63.95
2018-03-29T20:37:53.227Z,64.40
2018-03-29T20:40:20.958Z,66.65
2018-03-29T20:42:48.498Z,67.23
2018-03-29T20:45:16.060Z,66.32
2018-03-29T20:47:43.646Z,66.91
2018-03-29T20:50:11.195Z,67.50
2018-03-29T20:52:38.742Z,67.29
2018-03-29T20:55:06.482Z,68.19
2018-03-29T20:57:34.054Z,68.31
2018-03-29T21:00:01.605Z,68.09
2018-03-29T21:02:29.190Z,67.91
2018-03-29T21:04:56.782Z,69.12
2018-03-29T21:07:24.322Z,70.24
2018-03-29T21:09:52.082Z,70.05
2018-03-29T21:12:19.640Z,70.09
2018-03-29T21:14:47.190Z,69.99
2018-03-29T21:17:14.909Z,70.13
2018-03-29T21:19:42.450Z,70.12
2018-03-29T21:22:09.992Z,70.38
2018-03-29T21:24:37.564Z,70.83
2018-03-29T21:27:05.121Z,70.19
2018-03-29T21:29:32.679Z,70.26
2018-03-29T21:32:00.402Z,70.14
2018-03-29T21:34:27.982Z,70.40
2018-03-29T21:36:55.551Z,70.96
2018-03-29T21:39:23.138Z,71.19
2018-03-29T21:41:50.702Z,71.22
2018-03-29T21:44:18.254Z,71.29
2018-03-29T21:46:45.961Z,71.49
2018-03-29T21:49:13.535Z,71.48
2018-03-29T21:51:41.089Z,72.77
2018-03-29T21:54:08.710Z,72.33
2018-03-29T21:56:36.266Z,72.70
2018-03-29T21:59:03.818Z,72.80
2018-03-29T22:01:31.542Z,72.78
2018-03-29T22:03:59.086Z,72.53
2018-03-29T22:06:26.638Z,72.67
2018-03-29T22:08:54.237Z,73.35
2018-03-29T22:11:21.794Z,73.26
2018-03-29T22:13:50.285Z,74.08
2018-03-29T22:16:17.871Z,74.31
2018-03-29T22:18:45.427Z,74.61
2018-03-29T22:21:12.979Z,74.82
2018-03-29T22:23:40.663Z,74.74
2018-03-29T22:26:08.218Z,74.90
2018-03-29T22:28:35.785Z,74.23
2018-03-29T22:31:03.382Z,74.36
2018-03-29T22:33:30.923Z,75.06
2018-03-29T22:35:58.485Z,74.87
2018-03-29T22:38:26.045Z,74.95
2018-03-29T22:40:53.591Z,74.94
2018-03-29T22:43:21.138Z,75.19
2018-03-29T22:45:48.725Z,74.91
2018-03-29T22:48:16.311Z,75.16
2018-03-29T22:50:43.890Z,75.34
2018-03-29T22:53:11.614Z,75.88
2018-03-29T22:55:39.170Z,76.36
2018-03-29T22:58:06.711Z,76.22
2018-03-29T23:00:36.319Z,76.30
2018-03-29T23:03:03.884Z,76.44
2018-03-29T23:05:31.421Z,76.44
2018-03-29T23:07:59.156Z,76.33
2018-03-29T23:10:26.715Z,76.85
2018-03-29T23:12:54.272Z,76.97
2018-03-29T23:15:21.846Z,77.09
2018-03-29T23:17:49.400Z,77.28
2018-03-29T23:20:16.974Z,77.39
2018-03-29T23:22:44.554Z,77.30
2018-03-29T23:25:12.091Z,77.37
2018-03-29T23:27:39.626Z,77.58
2018-03-29T23:30:07.210Z,77.86
2018-03-29T23:32:34.757Z,77.75
2018-03-29T23:35:02.316Z,77.42
2018-03-29T23:37:29.934Z,77.30
2018-03-29T23:39:57.488Z,77.51
2018-03-29T23:42:25.038Z,77.65
2018-03-29T23:44:52.768Z,77.76
2018-03-29T23:47:20.312Z,77.50
2018-03-29T23:49:47.854Z,77.47
2018-03-29T23:52:15.540Z,76.77
2018-03-29T23:54:43.086Z,76.46
2018-03-29T23:57:10.622Z,76.42
2018-03-29T23:59:38.503Z,76.39
